Ruddington, United Kingdom
Current Conditions -  °F | °C
As of 6:20 AM on Monday 26 Jan 2015 (Local Time) from EGNX Reporting Station
Light Rain Light Rain  
Wind Chill:   Ceiling: 1400
Heat Index:   Visibility: 6mi
Dew Point:   Wind: 13mph
Humidity: 100%   Direction: 270°W
Pressure: 30.12"   Gusts: NA
Location:  52.89°N, 1.15°W
Report Text: EGNX 260620Z 27011KT 9999 -RADZ FEW004 BKN014 08/08 Q1020
Loading
Personal Weather Stations






























Interactive Weather Map New forecast layout! Learn more

10-Day Weather Forecast

Advertisements
Track Severe Weather on mobile